sensor_id;sensor_type;location;lat;lon;timestamp;pressure;altitude;pressure_sealevel;temperature;humidity
23473;BME280;11909;52.516;13.564;2023-05-20T00:00:16;102031.13;;;11.95;72.73
23473;BME280;11909;52.516;13.564;2023-05-20T00:02:44;102030.78;;;11.91;72.84
23473;BME280;11909;52.516;13.564;2023-05-20T00:05:12;102032.72;;;11.91;73.19
23473;BME280;11909;52.516;13.564;2023-05-20T00:07:40;102031.31;;;11.88;73.26
23473;BME280;11909;52.516;13.564;2023-05-20T00:10:10;102027.66;;;11.83;73.56
23473;BME280;11909;52.516;13.564;2023-05-20T00:12:38;102026.53;;;11.79;73.83
23473;BME280;11909;52.516;13.564;2023-05-20T00:15:07;102021.22;;;11.72;74.05
23473;BME280;11909;52.516;13.564;2023-05-20T00:17:37;102020.63;;;11.70;74.20
23473;BME280;11909;52.516;13.564;2023-05-20T00:20:06;102026.41;;;11.68;74.36
23473;BME280;11909;52.516;13.564;2023-05-20T00:22:34;102023.34;;;11.65;74.70
23473;BME280;11909;52.516;13.564;2023-05-20T00:25:03;102019.75;;;11.64;74.66
23473;BME280;11909;52.516;13.564;2023-05-20T00:27:32;102015.03;;;11.59;75.10
23473;BME280;11909;52.516;13.564;2023-05-20T00:30:00;102012.47;;;11.53;75.16
23473;BME280;11909;52.516;13.564;2023-05-20T00:32:27;102019.88;;;11.52;75.61
23473;BME280;11909;52.516;13.564;2023-05-20T00:34:56;102013.56;;;11.52;75.58
23473;BME280;11909;52.516;13.564;2023-05-20T00:37:24;102020.97;;;11.51;75.85
23473;BME280;11909;52.516;13.564;2023-05-20T00:39:52;102015.16;;;11.47;75.94
23473;BME280;11909;52.516;13.564;2023-05-20T00:42:20;102013.41;;;11.41;76.54
23473;BME280;11909;52.516;13.564;2023-05-20T00:44:50;102013.69;;;11.40;76.65
23473;BME280;11909;52.516;13.564;2023-05-20T00:47:20;102014.19;;;11.37;76.85
23473;BME280;11909;52.516;13.564;2023-05-20T00:49:49;102023.53;;;11.36;77.25
23473;BME280;11909;52.516;13.564;2023-05-20T00:52:17;102015.47;;;11.29;77.54
23473;BME280;11909;52.516;13.564;2023-05-20T00:54:46;102016.78;;;11.26;77.77
23473;BME280;11909;52.516;13.564;2023-05-20T00:57:14;102015.22;;;11.30;77.86
23473;BME280;11909;52.516;13.564;2023-05-20T00:59:43;102014.31;;;11.25;77.94
23473;BME280;11909;52.516;13.564;2023-05-20T01:02:13;102012.06;;;11.22;78.29
23473;BME280;11909;52.516;13.564;2023-05-20T01:04:41;102017.22;;;11.18;78.52
23473;BME280;11909;52.516;13.564;2023-05-20T01:07:14;102013.84;;;11.11;79.24
23473;BME280;11909;52.516;13.564;2023-05-20T01:09:43;102011.91;;;11.11;79.49
23473;BME280;11909;52.516;13.564;2023-05-20T01:12:14;102008.59;;;11.09;79.72
23473;BME280;11909;52.516;13.564;2023-05-20T01:14:47;102002.00;;;11.10;79.66
23473;BME280;11909;52.516;13.564;2023-05-20T01:17:19;102000.41;;;11.14;79.49
23473;BME280;11909;52.516;13.564;2023-05-20T01:19:47;101995.19;;;11.13;79.59
23473;BME280;11909;52.516;13.564;2023-05-20T01:22:16;101993.59;;;11.17;79.24
23473;BME280;11909;52.516;13.564;2023-05-20T01:24:46;101987.53;;;11.15;79.58
23473;BME280;11909;52.516;13.564;2023-05-20T01:27:14;101986.88;;;11.08;79.90
23473;BME280;11909;52.516;13.564;2023-05-20T01:29:42;101990.09;;;11.04;80.02
23473;BME280;11909;52.516;13.564;2023-05-20T01:32:14;101977.97;;;11.00;80.10
23473;BME280;11909;52.516;13.564;2023-05-20T01:34:47;101985.47;;;11.05;80.25
23473;BME280;11909;52.516;13.564;2023-05-20T01:37:17;101978.25;;;10.99;80.51
23473;BME280;11909;52.516;13.564;2023-05-20T01:39:48;101977.97;;;11.00;80.67
23473;BME280;11909;52.516;13.564;2023-05-20T01:42:18;101982.94;;;11.03;80.75
23473;BME280;11909;52.516;13.564;2023-05-20T01:44:47;101984.31;;;11.01;80.98
23473;BME280;11909;52.516;13.564;2023-05-20T01:47:14;101985.41;;;11.00;81.07
23473;BME280;11909;52.516;13.564;2023-05-20T01:49:42;101987.06;;;11.01;81.03
23473;BME280;11909;52.516;13.564;2023-05-20T01:52:11;101987.28;;;10.99;81.09
23473;BME280;11909;52.516;13.564;2023-05-20T01:54:40;101976.31;;;10.99;81.09
23473;BME280;11909;52.516;13.564;2023-05-20T01:57:09;101975.50;;;10.99;81.24
23473;BME280;11909;52.516;13.564;2023-05-20T01:59:38;101972.16;;;10.97;81.19
23473;BME280;11909;52.516;13.564;2023-05-20T02:02:05;101982.06;;;10.98;81.24
23473;BME280;11909;52.516;13.564;2023-05-20T02:04:33;101976.31;;;10.99;81.24
23473;BME280;11909;52.516;13.564;2023-05-20T02:07:01;101977.47;;;11.03;81.22
23473;BME280;11909;52.516;13.564;2023-05-20T02:09:29;101979.63;;;11.01;81.21
23473;BME280;11909;52.516;13.564;2023-05-20T02:11:57;101969.66;;;10.95;81.89
23473;BME280;11909;52.516;13.564;2023-05-20T02:14:26;101972.97;;;10.97;81.61
23473;BME280;11909;52.516;13.564;2023-05-20T02:16:54;101975.50;;;10.99;81.59
23473;BME280;11909;52.516;13.564;2023-05-20T02:19:22;101966.47;;;11.03;81.54
23473;BME280;11909;52.516;13.564;2023-05-20T02:21:50;101966.47;;;11.03;81.63
23473;BME280;11909;52.516;13.564;2023-05-20T02:24:18;101972.81;;;11.04;81.66
23473;BME280;11909;52.516;13.564;2023-05-20T02:26:46;101973.97;;;11.08;81.56
23473;BME280;11909;52.516;13.564;2023-05-20T02:29:16;101970.31;;;11.02;81.85
23473;BME280;11909;52.516;13.564;2023-05-20T02:31:46;101967.81;;;11.01;82.06
23473;BME280;11909;52.516;13.564;2023-05-20T02:34:14;101963.22;;;11.07;81.95
23473;BME280;11909;52.516;13.564;2023-05-20T02:36:42;101963.81;;;11.09;81.65
23473;BME280;11909;52.516;13.564;2023-05-20T02:39:10;101960.78;;;11.10;81.82
23473;BME280;11909;52.516;13.564;2023-05-20T02:41:38;101962.53;;;11.16;81.57
23473;BME280;11909;52.516;13.564;2023-05-20T02:44:06;101966.69;;;11.19;81.44
23473;BME280;11909;52.516;13.564;2023-05-20T02:46:34;101970.28;;;11.19;81.67
23473;BME280;11909;52.516;13.564;2023-05-20T02:49:03;101966.69;;;11.19;81.49
23473;BME280;11909;52.516;13.564;2023-05-20T02:51:31;101976.06;;;11.23;81.59
23473;BME280;11909;52.516;13.564;2023-05-20T02:54:00;101977.09;;;11.17;81.77
23473;BME280;11909;52.516;13.564;2023-05-20T02:56:28;101977.16;;;11.22;81.69
23473;BME280;11909;52.516;13.564;2023-05-20T02:58:56;101970.19;;;11.14;81.83
23473;BME280;11909;52.516;13.564;2023-05-20T03:01:24;101973.59;;;11.22;81.83
23473;BME280;11909;52.516;13.564;2023-05-20T03:03:52;101977.75;;;11.24;81.32
23473;BME280;11909;52.516;13.564;2023-05-20T03:06:22;101972.53;;;11.23;81.35
23473;BME280;11909;52.516;13.564;2023-05-20T03:08:49;101983.00;;;11.26;81.27
23473;BME280;11909;52.516;13.564;2023-05-20T03:11:17;101990.97;;;11.27;81.45
23473;BME280;11909;52.516;13.564;2023-05-20T03:13:45;101989.31;;;11.26;81.35
23473;BME280;11909;52.516;13.564;2023-05-20T03:16:13;101990.34;;;11.20;81.84
23473;BME280;11909;52.516;13.564;2023-05-20T03:18:42;101988.09;;;11.17;81.82
23473;BME280;11909;52.516;13.564;2023-05-20T03:21:10;101989.41;;;11.14;82.16
23473;BME280;11909;52.516;13.564;2023-05-20T03:23:39;101995.25;;;11.18;82.30
23473;BME280;11909;52.516;13.564;2023-05-20T03:26:07;101993.94;;;11.21;82.38
23473;BME280;11909;52.516;13.564;2023-05-20T03:28:35;101991.19;;;11.21;82.10
23473;BME280;11909;52.516;13.564;2023-05-20T03:31:03;101984.84;;;11.20;82.28
23473;BME280;11909;52.516;13.564;2023-05-20T03:33:33;101982.94;;;11.21;82.31
23473;BME280;11909;52.516;13.564;2023-05-20T03:36:01;101993.59;;;11.17;82.42
23473;BME280;11909;52.516;13.564;2023-05-20T03:38:29;101990.66;;;11.24;82.78
23473;BME280;11909;52.516;13.564;2023-05-20T03:40:59;101988.44;;;11.21;82.57
23473;BME280;11909;52.516;13.564;2023-05-20T03:43:26;101999.09;;;11.17;82.79
23473;BME280;11909;52.516;13.564;2023-05-20T03:45:54;101996.34;;;11.17;82.54
23473;BME280;11909;52.516;13.564;2023-05-20T03:48:22;101990.91;;;11.22;82.75
23473;BME280;11909;52.516;13.564;2023-05-20T03:50:50;101993.59;;;11.17;82.90
23473;BME280;11909;52.516;13.564;2023-05-20T03:53:18;101996.56;;;11.15;82.68
23473;BME280;11909;52.516;13.564;2023-05-20T03:55:46;101997.66;;;11.14;82.96
23473;BME280;11909;52.516;13.564;2023-05-20T03:58:15;102000.41;;;11.14;83.05
23473;BME280;11909;52.516;13.564;2023-05-20T04:00:43;102002.91;;;11.16;83.50
23473;BME280;11909;52.516;13.564;2023-05-20T04:03:12;102010.06;;;11.17;83.72
23473;BME280;11909;52.516;13.564;2023-05-20T04:05:40;101997.09;;;11.12;83.81
23473;BME280;11909;52.516;13.564;2023-05-20T04:08:08;101995.75;;;11.15;83.74
23473;BME280;11909;52.516;13.564;2023-05-20T04:10:39;101990.78;;;11.12;84.25
23473;BME280;11909;52.516;13.564;2023-05-20T04:13:09;102000.34;;;11.09;84.25
23473;BME280;11909;52.516;13.564;2023-05-20T04:15:38;101986.88;;;11.08;84.29
23473;BME280;11909;52.516;13.564;2023-05-20T04:18:07;101975.56;;;11.04;85.11
23473;BME280;11909;52.516;13.564;2023-05-20T04:20:35;101975.03;;;11.07;85.29
23473;BME280;11909;52.516;13.564;2023-05-20T04:23:03;101974.47;;;11.05;85.16
23473;BME280;11909;52.516;13.564;2023-05-20T04:25:31;101978.13;;;11.11;84.89
23473;BME280;11909;52.516;13.564;2023-05-20T04:28:00;101987.53;;;11.15;85.07
23473;BME280;11909;52.516;13.564;2023-05-20T04:30:28;101980.38;;;11.14;85.58
23473;BME280;11909;52.516;13.564;2023-05-20T04:33:00;101982.84;;;11.15;85.27
23473;BME280;11909;52.516;13.564;2023-05-20T04:35:30;101983.41;;;11.17;85.36
23473;BME280;11909;52.516;13.564;2023-05-20T04:38:00;101989.25;;;11.21;85.53
23473;BME280;11909;52.516;13.564;2023-05-20T04:40:28;101984.09;;;11.25;85.52
23473;BME280;11909;52.516;13.564;2023-05-20T04:42:58;101990.16;;;11.27;85.75
23473;BME280;11909;52.516;13.564;2023-05-20T04:45:26;101984.91;;;11.25;86.07
23473;BME280;11909;52.516;13.564;2023-05-20T04:47:54;101985.56;;;11.32;86.21
23473;BME280;11909;52.516;13.564;2023-05-20T04:50:23;101993.53;;;11.34;85.86
23473;BME280;11909;52.516;13.564;2023-05-20T04:52:51;101991.63;;;11.35;86.30
23473;BME280;11909;52.516;13.564;2023-05-20T04:55:19;101997.13;;;11.35;86.87
23473;BME280;11909;52.516;13.564;2023-05-20T04:57:50;101991.13;;;11.38;86.77
23473;BME280;11909;52.516;13.564;2023-05-20T05:00:18;101993.59;;;11.39;86.90
23473;BME280;11909;52.516;13.564;2023-05-20T05:02:46;101987.34;;;11.44;86.73
23473;BME280;11909;52.516;13.564;2023-05-20T05:05:14;101982.69;;;11.44;86.72
23473;BME280;11909;52.516;13.564;2023-05-20T05:07:43;101980.75;;;11.45;86.85
23473;BME280;11909;52.516;13.564;2023-05-20T05:10:12;101979.94;;;11.44;86.98
23473;BME280;11909;52.516;13.564;2023-05-20T05:12:41;101984.34;;;11.45;87.22
23473;BME280;11909;52.516;13.564;2023-05-20T05:15:10;101985.16;;;11.46;87.45
23473;BME280;11909;52.516;13.564;2023-05-20T05:17:37;101990.66;;;11.46;87.87
23473;BME280;11909;52.516;13.564;2023-05-20T05:20:07;101983.31;;;11.52;87.80
23473;BME280;11909;52.516;13.564;2023-05-20T05:22:35;101984.13;;;11.52;88.24
23473;BME280;11909;52.516;13.564;2023-05-20T05:25:07;101988.06;;;11.56;88.10
23473;BME280;11909;52.516;13.564;2023-05-20T05:27:35;101987.78;;;11.58;88.21
23473;BME280;11909;52.516;13.564;2023-05-20T05:30:05;101986.44;;;11.60;88.08
23473;BME280;11909;52.516;13.564;2023-05-20T05:32:35;101980.19;;;11.65;88.50
23473;BME280;11909;52.516;13.564;2023-05-20T05:35:05;101981.50;;;11.62;88.26
23473;BME280;11909;52.516;13.564;2023-05-20T05:37:33;101986.50;;;11.66;88.28
23473;BME280;11909;52.516;13.564;2023-05-20T05:40:01;101983.78;;;11.71;88.48
23473;BME280;11909;52.516;13.564;2023-05-20T05:42:31;101986.56;;;11.71;88.45
23473;BME280;11909;52.516;13.564;2023-05-20T05:44:59;101981.41;;;11.80;88.77
23473;BME280;11909;52.516;13.564;2023-05-20T05:47:27;101986.34;;;11.77;88.79
23473;BME280;11909;52.516;13.564;2023-05-20T05:49:58;101986.13;;;11.79;88.89
23473;BME280;11909;52.516;13.564;2023-05-20T05:52:26;101972.13;;;11.86;88.74
23473;BME280;11909;52.516;13.564;2023-05-20T05:54:54;101976.28;;;11.88;88.58
23473;BME280;11909;52.516;13.564;2023-05-20T05:57:22;101965.63;;;11.92;88.60
23473;BME280;11909;52.516;13.564;2023-05-20T05:59:51;101959.84;;;11.94;88.67
23473;BME280;11909;52.516;13.564;2023-05-20T06:02:21;101967.00;;;11.95;88.41
23473;BME280;11909;52.516;13.564;2023-05-20T06:04:49;101972.56;;;12.00;88.36
23473;BME280;11909;52.516;13.564;2023-05-20T06:07:17;101958.56;;;12.01;88.65
23473;BME280;11909;52.516;13.564;2023-05-20T06:09:44;101954.19;;;12.05;88.64
23473;BME280;11909;52.516;13.564;2023-05-20T06:12:12;101959.47;;;12.07;89.04
23473;BME280;11909;52.516;13.564;2023-05-20T06:14:40;101961.44;;;12.12;88.60
23473;BME280;11909;52.516;13.564;2023-05-20T06:17:10;101951.25;;;12.12;88.32
23473;BME280;11909;52.516;13.564;2023-05-20T06:19:38;101954.31;;;12.16;88.19
23473;BME280;11909;52.516;13.564;2023-05-20T06:22:06;101956.22;;;12.15;87.93
23473;BME280;11909;52.516;13.564;2023-05-20T06:24:34;101959.00;;;12.21;88.27
23473;BME280;11909;52.516;13.564;2023-05-20T06:27:02;101957.41;;;12.25;88.33
23473;BME280;11909;52.516;13.564;2023-05-20T06:29:30;101953.59;;;12.31;88.57
23473;BME280;11909;52.516;13.564;2023-05-20T06:31:58;101958.84;;;12.32;88.13
23473;BME280;11909;52.516;13.564;2023-05-20T06:34:27;101961.38;;;12.39;87.05
23473;BME280;11909;52.516;13.564;2023-05-20T06:36:55;101961.09;;;12.36;87.02
23473;BME280;11909;52.516;13.564;2023-05-20T06:39:23;101958.34;;;12.36;87.41
23473;BME280;11909;52.516;13.564;2023-05-20T06:41:51;101961.34;;;12.34;87.77
23473;BME280;11909;52.516;13.564;2023-05-20T06:44:19;101960.50;;;12.33;87.42
23473;BME280;11909;52.516;13.564;2023-05-20T06:46:47;101957.25;;;12.37;87.62
23473;BME280;11909;52.516;13.564;2023-05-20T06:49:15;101956.72;;;12.40;87.78
23473;BME280;11909;52.516;13.564;2023-05-20T06:51:44;101951.81;;;12.47;87.71
23473;BME280;11909;52.516;13.564;2023-05-20T06:54:12;101949.06;;;12.47;87.34
23473;BME280;11909;52.516;13.564;2023-05-20T06:56:40;101959.50;;;12.45;87.05
23473;BME280;11909;52.516;13.564;2023-05-20T06:59:08;101951.56;;;12.48;87.56
23473;BME280;11909;52.516;13.564;2023-05-20T07:01:36;101953.50;;;12.53;87.51
23473;BME280;11909;52.516;13.564;2023-05-20T07:04:04;101958.22;;;12.58;86.94
23473;BME280;11909;52.516;13.564;2023-05-20T07:06:32;101958.47;;;12.56;87.15
23473;BME280;11909;52.516;13.564;2023-05-20T07:09:02;101952.50;;;12.65;87.54
23473;BME280;11909;52.516;13.564;2023-05-20T07:11:30;101952.78;;;12.68;87.13
23473;BME280;11909;52.516;13.564;2023-05-20T07:13:58;101952.81;;;12.73;86.25
23473;BME280;11909;52.516;13.564;2023-05-20T07:16:26;101955.03;;;12.76;86.18
23473;BME280;11909;52.516;13.564;2023-05-20T07:18:55;101956.41;;;12.79;85.96
23473;BME280;11909;52.516;13.564;2023-05-20T07:21:23;101957.50;;;12.78;84.84
23473;BME280;11909;52.516;13.564;2023-05-20T07:23:51;101960.56;;;12.76;85.07
23473;BME280;11909;52.516;13.564;2023-05-20T07:26:20;101959.47;;;12.77;85.60
23473;BME280;11909;52.516;13.564;2023-05-20T07:28:48;101954.81;;;12.83;85.73
23473;BME280;11909;52.516;13.564;2023-05-20T07:31:17;101957.84;;;12.87;85.85
23473;BME280;11909;52.516;13.564;2023-05-20T07:33:45;101950.44;;;12.93;85.85
23473;BME280;11909;52.516;13.564;2023-05-20T07:36:12;101949.34;;;12.94;84.83
23473;BME280;11909;52.516;13.564;2023-05-20T07:38:40;101946.88;;;12.92;84.96
23473;BME280;11909;52.516;13.564;2023-05-20T07:41:28;101948.56;;;12.98;85.13
23473;BME280;11909;52.516;13.564;2023-05-20T07:43:56;101940.84;;;13.00;84.03
23473;BME280;11909;52.516;13.564;2023-05-20T07:46:23;101940.84;;;13.00;83.54
23473;BME280;11909;52.516;13.564;2023-05-20T07:48:51;101941.66;;;13.01;83.71
23473;BME280;11909;52.516;13.564;2023-05-20T07:51:19;101941.97;;;13.04;83.54
23473;BME280;11909;52.516;13.564;2023-05-20T07:53:47;101943.66;;;13.11;83.62
23473;BME280;11909;52.516;13.564;2023-05-20T07:56:15;101942.63;;;13.22;84.31
23473;BME280;11909;52.516;13.564;2023-05-20T07:58:51;101935.47;;;13.26;83.78
23473;BME280;11909;52.516;13.564;2023-05-20T08:01:19;101930.25;;;13.35;82.31
23473;BME280;11909;52.516;13.564;2023-05-20T08:03:47;101931.91;;;13.36;82.58
23473;BME280;11909;52.516;13.564;2023-05-20T08:06:15;101928.88;;;13.38;81.71
23473;BME280;11909;52.516;13.564;2023-05-20T08:08:43;101920.66;;;13.48;82.47
23473;BME280;11909;52.516;13.564;2023-05-20T08:11:11;101920.97;;;13.52;81.61
23473;BME280;11909;52.516;13.564;2023-05-20T08:13:39;101920.41;;;13.55;82.33
23473;BME280;11909;52.516;13.564;2023-05-20T08:16:09;101918.53;;;13.66;82.38
23473;BME280;11909;52.516;13.564;2023-05-20T08:18:37;101919.34;;;13.71;81.88
23473;BME280;11909;52.516;13.564;2023-05-20T08:21:05;101919.91;;;13.79;81.40
23473;BME280;11909;52.516;13.564;2023-05-20T08:23:34;101917.97;;;13.79;81.39
23473;BME280;11909;52.516;13.564;2023-05-20T08:26:06;101923.22;;;13.86;81.83
23473;BME280;11909;52.516;13.564;2023-05-20T08:28:33;101924.63;;;13.88;82.52
23473;BME280;11909;52.516;13.564;2023-05-20T08:31:03;101918.56;;;13.97;82.06
23473;BME280;11909;52.516;13.564;2023-05-20T08:33:32;101919.41;;;14.02;81.32
23473;BME280;11909;52.516;13.564;2023-05-20T08:36:01;101917.47;;;14.08;80.37
23473;BME280;11909;52.516;13.564;2023-05-20T08:38:29;101913.03;;;14.17;81.10
23473;BME280;11909;52.516;13.564;2023-05-20T08:40:57;101911.09;;;14.13;80.98
23473;BME280;11909;52.516;13.564;2023-05-20T08:43:27;101915.50;;;14.14;79.73
23473;BME280;11909;52.516;13.564;2023-05-20T08:45:58;101905.31;;;14.14;80.11
23473;BME280;11909;52.516;13.564;2023-05-20T08:48:29;101900.91;;;14.08;79.69
23473;BME280;11909;52.516;13.564;2023-05-20T08:51:00;101909.44;;;14.07;80.34
23473;BME280;11909;52.516;13.564;2023-05-20T08:53:29;101910.28;;;14.12;78.99
23473;BME280;11909;52.516;13.564;2023-05-20T08:55:59;101899.25;;;14.17;79.15
23473;BME280;11909;52.516;13.564;2023-05-20T08:58:29;101906.97;;;14.10;79.13
23473;BME280;11909;52.516;13.564;2023-05-20T09:00:57;101895.09;;;14.10;80.18
23473;BME280;11909;52.516;13.564;2023-05-20T09:03:25;101896.75;;;14.11;79.78
23473;BME280;11909;52.516;13.564;2023-05-20T09:06:04;101900.91;;;14.13;80.68
23473;BME280;11909;52.516;13.564;2023-05-20T09:08:33;101892.34;;;14.25;81.92
23473;BME280;11909;52.516;13.564;2023-05-20T09:11:01;101888.72;;;14.30;82.39
23473;BME280;11909;52.516;13.564;2023-05-20T09:13:30;101893.69;;;14.38;81.39
23473;BME280;11909;52.516;13.564;2023-05-20T09:15:59;101901.16;;;14.48;77.21
23473;BME280;11909;52.516;13.564;2023-05-20T09:18:28;101897.00;;;14.45;78.76
23473;BME280;11909;52.516;13.564;2023-05-20T09:20:56;101900.31;;;14.42;78.38
23473;BME280;11909;52.516;13.564;2023-05-20T09:23:27;101905.84;;;14.42;78.92
23473;BME280;11909;52.516;13.564;2023-05-20T09:25:56;101901.16;;;14.48;78.84
23473;BME280;11909;52.516;13.564;2023-05-20T09:28:27;101901.97;;;14.48;77.52
23473;BME280;11909;52.516;13.564;2023-05-20T09:30:58;101896.97;;;14.51;76.87
23473;BME280;11909;52.516;13.564;2023-05-20T09:33:27;101889.81;;;14.49;77.55
23473;BME280;11909;52.516;13.564;2023-05-20T09:36:04;101897.53;;;14.47;77.55
23473;BME280;11909;52.516;13.564;2023-05-20T09:38:37;101893.97;;;14.47;77.01
23473;BME280;11909;52.516;13.564;2023-05-20T09:41:07;101895.88;;;14.52;78.51
23473;BME280;11909;52.516;13.564;2023-05-20T09:43:35;101895.63;;;14.48;78.11
23473;BME280;11909;52.516;13.564;2023-05-20T09:46:04;101890.91;;;14.48;78.78
23473;BME280;11909;52.516;13.564;2023-05-20T09:48:32;101890.09;;;14.48;79.38
23473;BME280;11909;52.516;13.564;2023-05-20T09:51:03;101889.81;;;14.49;79.72
23473;BME280;11909;52.516;13.564;2023-05-20T09:53:32;101895.34;;;14.55;78.28
23473;BME280;11909;52.516;13.564;2023-05-20T09:56:01;101896.69;;;14.57;77.92
23473;BME280;11909;52.516;13.564;2023-05-20T09:58:31;101887.03;;;14.60;78.39
23473;BME280;11909;52.516;13.564;2023-05-20T10:01:00;101898.91;;;14.66;78.67
23473;BME280;11909;52.516;13.564;2023-05-20T10:03:28;101908.03;;;14.76;77.44
23473;BME280;11909;52.516;13.564;2023-05-20T10:06:12;101900.53;;;14.82;77.11
23473;BME280;11909;52.516;13.564;2023-05-20T10:08:55;101888.13;;;14.74;77.73
23473;BME280;11909;52.516;13.564;2023-05-20T10:11:31;101895.84;;;14.72;77.93
23473;BME280;11909;52.516;13.564;2023-05-20T10:14:27;101893.09;;;14.72;78.30
23473;BME280;11909;52.516;13.564;2023-05-20T10:17:04;101903.03;;;14.73;78.00
23473;BME280;11909;52.516;13.564;2023-05-20T10:19:35;101889.44;;;14.87;75.74
23473;BME280;11909;52.516;13.564;2023-05-20T10:22:04;101888.09;;;14.85;77.08
23473;BME280;11909;52.516;13.564;2023-05-20T10:24:33;101884.47;;;14.95;76.33
23473;BME280;11909;52.516;13.564;2023-05-20T10:27:06;101881.94;;;15.03;76.93
23473;BME280;11909;52.516;13.564;2023-05-20T10:29:42;101878.38;;;14.98;76.80
23473;BME280;11909;52.516;13.564;2023-05-20T10:32:10;101881.63;;;15.10;76.71
23473;BME280;11909;52.516;13.564;2023-05-20T10:34:46;101888.50;;;15.18;74.70
23473;BME280;11909;52.516;13.564;2023-05-20T10:37:24;101885.44;;;15.25;75.09
23473;BME280;11909;52.516;13.564;2023-05-20T10:40:04;101874.91;;;15.27;76.64
23473;BME280;11909;52.516;13.564;2023-05-20T10:42:33;101882.41;;;15.26;75.61
23473;BME280;11909;52.516;13.564;2023-05-20T10:45:02;101886.00;;;15.22;75.52
23473;BME280;11909;52.516;13.564;2023-05-20T10:47:30;101878.00;;;15.20;76.20
23473;BME280;11909;52.516;13.564;2023-05-20T10:49:59;101866.88;;;15.30;76.80
23473;BME280;11909;52.516;13.564;2023-05-20T10:52:32;101869.34;;;15.37;74.37
23473;BME280;11909;52.516;13.564;2023-05-20T10:55:00;101871.56;;;15.35;74.45
23473;BME280;11909;52.516;13.564;2023-05-20T10:57:30;101856.59;;;15.41;74.55
23473;BME280;11909;52.516;13.564;2023-05-20T11:00:00;101856.88;;;15.40;73.12
23473;BME280;11909;52.516;13.564;2023-05-20T11:02:28;101852.97;;;15.41;73.81
23473;BME280;11909;52.516;13.564;2023-05-20T11:04:56;101843.00;;;15.45;76.01
23473;BME280;11909;52.516;13.564;2023-05-20T11:07:25;101852.34;;;15.54;75.61
23473;BME280;11909;52.516;13.564;2023-05-20T11:09:54;101847.34;;;15.56;73.23
23473;BME280;11909;52.516;13.564;2023-05-20T11:12:23;101836.81;;;15.58;74.48
23473;BME280;11909;52.516;13.564;2023-05-20T11:14:51;101849.50;;;15.65;73.91
23473;BME280;11909;52.516;13.564;2023-05-20T11:17:21;101836.78;;;15.69;74.78
23473;BME280;11909;52.516;13.564;2023-05-20T11:19:49;101840.56;;;15.78;74.18
23473;BME280;11909;52.516;13.564;2023-05-20T11:22:17;101847.16;;;15.82;72.24
23473;BME280;11909;52.516;13.564;2023-05-20T11:24:45;101842.13;;;15.89;73.35
23473;BME280;11909;52.516;13.564;2023-05-20T11:27:13;101839.31;;;16.24;72.22
23473;BME280;11909;52.516;13.564;2023-05-20T11:29:41;101843.06;;;16.39;70.11
23473;BME280;11909;52.516;13.564;2023-05-20T11:32:11;101830.22;;;16.48;72.41
23473;BME280;11909;52.516;13.564;2023-05-20T11:34:40;101832.13;;;16.53;73.09
23473;BME280;11909;52.516;13.564;2023-05-20T11:37:09;101828.41;;;16.62;71.49
23473;BME280;11909;52.516;13.564;2023-05-20T11:39:37;101825.81;;;16.71;69.81
23473;BME280;11909;52.516;13.564;2023-05-20T11:42:05;101830.06;;;16.63;69.39
23473;BME280;11909;52.516;13.564;2023-05-20T11:44:33;101832.81;;;16.63;70.41
23473;BME280;11909;52.516;13.564;2023-05-20T11:47:02;101837.25;;;16.65;67.83
23473;BME280;11909;52.516;13.564;2023-05-20T11:49:38;101835.06;;;16.61;69.46
23473;BME280;11909;52.516;13.564;2023-05-20T11:52:08;101825.72;;;16.76;69.82
23473;BME280;11909;52.516;13.564;2023-05-20T11:54:37;101835.28;;;16.89;68.74
23473;BME280;11909;52.516;13.564;2023-05-20T11:57:05;101822.84;;;16.87;69.81
23473;BME280;11909;52.516;13.564;2023-05-20T11:59:34;101823.50;;;17.03;68.98
23473;BME280;11909;52.516;13.564;2023-05-20T12:02:02;101823.69;;;17.06;68.88
23473;BME280;11909;52.516;13.564;2023-05-20T12:04:30;101823.81;;;16.96;69.23
23473;BME280;11909;52.516;13.564;2023-05-20T12:06:58;101826.44;;;17.12;70.46
23473;BME280;11909;52.516;13.564;2023-05-20T12:09:27;101813.97;;;17.28;68.64
23473;BME280;11909;52.516;13.564;2023-05-20T12:11:55;101805.75;;;17.42;70.57
23473;BME280;11909;52.516;13.564;2023-05-20T12:14:24;101811.78;;;17.63;69.37
23473;BME280;11909;52.516;13.564;2023-05-20T12:16:52;101816.38;;;17.87;69.42
23473;BME280;11909;52.516;13.564;2023-05-20T12:19:20;101822.84;;;18.02;65.74
23473;BME280;11909;52.516;13.564;2023-05-20T12:21:48;101818.91;;;18.03;64.99
23473;BME280;11909;52.516;13.564;2023-05-20T12:24:18;101815.84;;;17.85;68.20
23473;BME280;11909;52.516;13.564;2023-05-20T12:26:47;101812.94;;;17.76;66.01
23473;BME280;11909;52.516;13.564;2023-05-20T12:29:15;101808.09;;;17.68;65.22
23473;BME280;11909;52.516;13.564;2023-05-20T12:31:43;101792.56;;;17.67;68.35
23473;BME280;11909;52.516;13.564;2023-05-20T12:34:11;101787.59;;;17.64;67.90
23473;BME280;11909;52.516;13.564;2023-05-20T12:36:39;101788.72;;;17.63;69.27
23473;BME280;11909;52.516;13.564;2023-05-20T12:39:07;101774.59;;;17.78;70.29
23473;BME280;11909;52.516;13.564;2023-05-20T12:41:36;101783.28;;;17.91;65.05
23473;BME280;11909;52.516;13.564;2023-05-20T12:44:05;101778.41;;;18.02;65.96
23473;BME280;11909;52.516;13.564;2023-05-20T12:46:34;101768.94;;;18.17;68.05
23473;BME280;11909;52.516;13.564;2023-05-20T12:49:02;101766.97;;;18.31;68.35